Time;durP1;ratioP1;P1;durP2;ratioP2;P2;SDS_P1;SDS_P2;PMS_P1;PMS_P2;Temp;Humidity;BMP_temperature;BMP_pressure;BME280_temperature;BME280_humidity;BME280_pressure;Samples;Min_cycle;Max_cycle;Signal;HPM_P1;HPM_P2
2023/01/14 00:01:08;;;;;;;6.65;1.40;;;;;;;;;;4933970;28;20050;-75
2023/01/14 00:03:35;;;;;;;3.60;1.48;;;;;;;;;;4940265;28;20062;-75
2023/01/14 00:06:03;;;;;;;4.00;1.30;;;;;;;;;;4955903;28;20062;-75
2023/01/14 00:08:30;;;;;;;7.38;1.85;;;;;;;;;;4955671;28;20057;-75
2023/01/14 00:11:01;;;;;;;8.65;1.67;;;;;;;;;;4957148;28;20054;-75
2023/01/14 00:13:27;;;;;;;9.93;2.58;;;;;;;;;;4956091;28;20055;-76
2023/01/14 00:15:56;;;;;;;4.78;1.63;;;;;;;;;;4972286;28;20058;-76
2023/01/14 00:18:23;;;;;;;7.75;1.95;;;;;;;;;;4943545;28;20108;-76
2023/01/14 00:20:59;;;;;;;7.60;1.67;;;;;;;;;;4988818;28;20616;-76
2023/01/14 00:23:27;;;;;;;9.50;1.88;;;;;;;;;;4974150;28;20116;-76
2023/01/14 00:25:53;;;;;;;8.13;1.48;;;;;;;;;;4974986;28;20415;-76
2023/01/14 00:28:22;;;;;;;11.52;1.98;;;;;;;;;;4942343;28;20105;-75
2023/01/14 00:30:49;;;;;;;7.47;1.73;;;;;;;;;;4957558;28;20562;-75
2023/01/14 00:33:15;;;;;;;6.78;1.95;;;;;;;;;;4958326;28;20855;-73
2023/01/14 00:35:42;;;;;;;10.18;2.17;;;;;;;;;;4990056;28;20053;-73
2023/01/14 00:38:09;;;;;;;8.93;2.20;;;;;;;;;;4942462;28;20054;-74
2023/01/14 00:40:35;;;;;;;8.27;2.45;;;;;;;;;;4970731;28;20047;-74
2023/01/14 00:43:02;;;;;;;8.60;1.83;;;;;;;;;;4954643;28;20059;-74
2023/01/14 00:45:29;;;;;;;6.00;1.92;;;;;;;;;;4954765;28;20522;-74
2023/01/14 00:47:56;;;;;;;8.70;1.98;;;;;;;;;;4955538;28;20054;-74
2023/01/14 00:50:23;;;;;;;10.50;1.90;;;;;;;;;;4944439;28;20054;-74
2023/01/14 00:52:49;;;;;;;6.35;1.98;;;;;;;;;;4974538;28;20050;-74
2023/01/14 00:55:16;;;;;;;5.25;1.60;;;;;;;;;;4991050;28;20054;-74
2023/01/14 00:57:43;;;;;;;6.70;1.70;;;;;;;;;;4991350;28;20507;-74
2023/01/14 01:00:10;;;;;;;11.45;2.08;;;;;;;;;;4955811;28;20057;-74
2023/01/14 01:02:37;;;;;;;10.45;2.13;;;;;;;;;;4960044;28;20058;-74
2023/01/14 01:05:04;;;;;;;4.15;2.13;;;;;;;;;;4990019;28;20047;-74
2023/01/14 01:07:31;;;;;;;3.60;1.77;;;;;;;;;;4958606;28;20062;-74
2023/01/14 01:09:57;;;;;;;6.57;1.50;;;;;;;;;;4973245;28;20066;-74
2023/01/14 01:12:24;;;;;;;4.82;1.88;;;;;;;;;;4955535;28;20065;-74
2023/01/14 01:14:51;;;;;;;8.60;2.50;;;;;;;;;;4955470;28;20055;-74
2023/01/14 01:17:18;;;;;;;5.47;1.77;;;;;;;;;;4954788;28;20073;-74
2023/01/14 01:19:46;;;;;;;8.55;1.67;;;;;;;;;;4955491;28;20059;-75
2023/01/14 01:22:13;;;;;;;7.43;1.90;;;;;;;;;;4974015;28;20076;-75
2023/01/14 01:24:40;;;;;;;12.10;1.63;;;;;;;;;;4991013;28;20054;-76
2023/01/14 01:27:06;;;;;;;8.23;1.90;;;;;;;;;;4964934;28;20077;-76
2023/01/14 01:29:33;;;;;;;5.78;1.25;;;;;;;;;;4972651;28;20062;-75
2023/01/14 01:32:00;;;;;;;5.40;1.73;;;;;;;;;;4984220;28;20404;-76
2023/01/14 01:34:27;;;;;;;4.03;1.48;;;;;;;;;;4981928;28;20054;-76
2023/01/14 01:36:55;;;;;;;9.02;1.70;;;;;;;;;;4992115;28;20491;-76
2023/01/14 01:39:22;;;;;;;8.95;2.08;;;;;;;;;;4976861;28;20495;-76
2023/01/14 01:41:48;;;;;;;6.00;2.08;;;;;;;;;;4977462;28;20470;-76
2023/01/14 01:44:15;;;;;;;8.02;1.73;;;;;;;;;;4988874;28;20081;-76
2023/01/14 01:46:45;;;;;;;6.38;2.03;;;;;;;;;;4973964;28;20138;-76
2023/01/14 01:49:17;;;;;;;9.15;2.28;;;;;;;;;;5007192;28;20066;-76
2023/01/14 01:51:51;;;;;;;8.00;1.50;;;;;;;;;;4993255;28;20061;-76
2023/01/14 01:54:20;;;;;;;10.55;2.25;;;;;;;;;;5011221;28;20054;-75
2023/01/14 01:56:47;;;;;;;6.63;1.45;;;;;;;;;;4977605;28;20096;-76
2023/01/14 01:59:20;;;;;;;6.80;1.42;;;;;;;;;;4993338;28;20054;-76
2023/01/14 02:01:47;;;;;;;9.85;1.80;;;;;;;;;;4976781;28;20060;-76
2023/01/14 02:04:13;;;;;;;7.07;1.45;;;;;;;;;;4994522;28;20104;-76
2023/01/14 02:06:40;;;;;;;9.70;1.67;;;;;;;;;;4979961;28;20046;-76
2023/01/14 02:09:07;;;;;;;5.00;1.38;;;;;;;;;;4995458;28;20514;-76
2023/01/14 02:12:17;;;;;;;5.03;1.30;;;;;;;;;;4996300;28;20064;-76
2023/01/14 02:14:50;;;;;;;6.40;1.27;;;;;;;;;;4995660;28;20054;-75
2023/01/14 02:17:28;;;;;;;5.47;2.20;;;;;;;;;;4998042;28;20050;-75
2023/01/14 02:20:22;;;;;;;6.40;1.48;;;;;;;;;;4996317;28;20085;-75
2023/01/14 02:22:49;;;;;;;;;;;;;;;;;;4990137;28;20046;-75
2023/01/14 02:25:34;;;;;;;9.55;1.55;;;;;;;;;;5001466;28;19927;-76
2023/01/14 02:28:46;;;;;;;8.05;1.80;;;;;;;;;;4964229;28;20137;-75
2023/01/14 02:31:29;;;;;;;8.93;2.00;;;;;;;;;;4967902;28;20073;-75
2023/01/14 02:34:10;;;;;;;4.82;1.40;;;;;;;;;;4976572;28;20136;-75
2023/01/14 02:36:51;;;;;;;8.38;1.67;;;;;;;;;;4945876;28;20105;-75
2023/01/14 02:39:26;;;;;;;6.28;1.42;;;;;;;;;;4960294;28;20061;-75
2023/01/14 02:45:12;;;;;;;12.00;2.45;;;;;;;;;;4946405;28;20126;-75
2023/01/14 02:47:39;;;;;;;8.30;2.10;;;;;;;;;;4927173;28;20054;-75
2023/01/14 02:50:07;;;;;;;5.88;1.75;;;;;;;;;;4956687;28;20572;-75
2023/01/14 02:52:34;;;;;;;6.03;2.05;;;;;;;;;;4956928;28;20650;-75
2023/01/14 02:55:02;;;;;;;6.57;1.50;;;;;;;;;;4940861;28;20142;-75
2023/01/14 02:57:59;;;;;;;6.80;1.45;;;;;;;;;;4945185;28;20097;-75
2023/01/14 03:00:34;;;;;;;4.82;1.48;;;;;;;;;;4978456;28;20089;-75
2023/01/14 03:03:55;;;;;;;4.97;1.20;;;;;;;;;;4960523;28;20058;-75
2023/01/14 03:06:42;;;;;;;5.07;1.50;;;;;;;;;;4914359;29;20060;-75
2023/01/14 03:09:27;;;;;;;6.15;1.35;;;;;;;;;;4955844;28;20054;-76
2023/01/14 03:12:08;;;;;;;11.90;1.92;;;;;;;;;;4949242;28;20510;-76
2023/01/14 03:14:41;;;;;;;4.72;1.25;;;;;;;;;;4957002;28;20055;-76
2023/01/14 03:17:30;;;;;;;3.97;1.63;;;;;;;;;;4926083;28;20700;-75
2023/01/14 03:20:03;;;;;;;4.32;1.23;;;;;;;;;;4956663;28;20426;-76
2023/01/14 03:22:30;;;;;;;;;;;;;;;;;;4969171;28;20065;-76
2023/01/14 03:24:57;;;;;;;8.40;1.70;;;;;;;;;;4959825;28;19925;-76
2023/01/14 03:27:25;;;;;;;6.05;2.13;;;;;;;;;;4944793;28;20057;-76
2023/01/14 03:29:58;;;;;;;7.60;1.25;;;;;;;;;;4975407;28;20082;-76
2023/01/14 03:33:00;;;;;;;6.18;1.48;;;;;;;;;;4959688;28;20054;-76
2023/01/14 03:35:30;;;;;;;5.60;1.65;;;;;;;;;;4904465;28;20511;-76
2023/01/14 03:38:12;;;;;;;7.90;2.03;;;;;;;;;;4924978;28;20065;-75
2023/01/14 03:40:38;;;;;;;6.93;1.98;;;;;;;;;;4942210;28;20149;-75
2023/01/14 03:43:09;;;;;;;5.90;1.48;;;;;;;;;;4956254;28;20109;-75
2023/01/14 03:45:37;;;;;;;5.35;1.25;;;;;;;;;;4944316;28;20054;-77
2023/01/14 03:48:04;;;;;;;5.03;1.73;;;;;;;;;;4933552;28;20134;-77
2023/01/14 03:50:34;;;;;;;2.88;0.85;;;;;;;;;;4974545;28;20062;-77
2023/01/14 03:53:43;;;;;;;6.53;1.33;;;;;;;;;;4949914;28;20054;-78
2023/01/14 03:56:33;;;;;;;5.82;1.42;;;;;;;;;;4927135;28;20046;-77
2023/01/14 03:59:09;;;;;;;5.70;2.00;;;;;;;;;;4964640;28;20103;-78
2023/01/14 04:01:50;;;;;;;7.10;1.30;;;;;;;;;;4944915;28;20058;-78
2023/01/14 04:04:16;;;;;;;7.03;1.33;;;;;;;;;;4961050;28;20062;-78
2023/01/14 04:06:43;;;;;;;2.58;1.05;;;;;;;;;;4993418;28;20514;-78
2023/01/14 04:09:10;;;;;;;6.88;1.50;;;;;;;;;;4944198;28;20059;-78
2023/01/14 04:11:37;;;;;;;5.38;1.92;;;;;;;;;;4956256;28;20054;-77
2023/01/14 04:16:57;;;;;;;4.85;1.48;;;;;;;;;;4960166;28;20125;-77
2023/01/14 04:19:24;;;;;;;4.80;1.10;;;;;;;;;;4957499;28;20109;-77
2023/01/14 04:21:50;;;;;;;4.55;1.13;;;;;;;;;;4960110;28;20203;-77
2023/01/14 04:24:17;;;;;;;10.50;1.30;;;;;;;;;;4960677;28;20064;-77
2023/01/14 04:26:44;;;;;;;5.95;1.25;;;;;;;;;;4958776;28;20050;-77
2023/01/14 04:29:11;;;;;;;5.93;2.25;;;;;;;;;;4990904;28;20169;-76
2023/01/14 04:31:37;;;;;;;5.78;1.35;;;;;;;;;;4975203;28;20061;-77
2023/01/14 04:34:04;;;;;;;5.03;0.90;;;;;;;;;;4961130;28;20502;-77
2023/01/14 04:36:31;;;;;;;4.07;0.82;;;;;;;;;;4956050;28;20532;-77
2023/01/14 04:38:57;;;;;;;5.80;0.85;;;;;;;;;;4955896;28;20061;-77
2023/01/14 04:44:09;;;;;;;5.82;0.98;;;;;;;;;;4972743;28;20122;-77
2023/01/14 04:46:36;;;;;;;5.80;1.48;;;;;;;;;;4965863;28;20110;-77
2023/01/14 04:49:03;;;;;;;3.45;0.80;;;;;;;;;;4972122;28;20050;-77
2023/01/14 04:51:29;;;;;;;5.18;1.27;;;;;;;;;;4974698;28;20064;-77
2023/01/14 04:53:56;;;;;;;3.28;0.90;;;;;;;;;;4958967;28;20058;-77
2023/01/14 04:56:23;;;;;;;7.50;1.92;;;;;;;;;;4975022;28;20112;-77
2023/01/14 04:58:49;;;;;;;6.30;1.55;;;;;;;;;;4978989;28;20140;-77
2023/01/14 05:01:16;;;;;;;6.47;1.50;;;;;;;;;;4975015;28;20057;-76
2023/01/14 05:03:43;;;;;;;4.97;0.93;;;;;;;;;;4974122;28;20054;-76
2023/01/14 05:06:10;;;;;;;7.22;1.67;;;;;;;;;;4961746;28;20046;-77
2023/01/14 05:08:36;;;;;;;3.42;0.98;;;;;;;;;;4959153;28;20050;-76
2023/01/14 05:11:03;;;;;;;4.80;1.17;;;;;;;;;;4938869;28;20058;-76
2023/01/14 05:13:30;;;;;;;2.65;0.90;;;;;;;;;;4970444;28;20054;-76
2023/01/14 05:16:00;;;;;;;4.28;1.58;;;;;;;;;;4972070;28;20106;-78
2023/01/14 05:18:27;;;;;;;8.57;1.20;;;;;;;;;;4972684;28;20567;-78
2023/01/14 05:20:54;;;;;;;5.05;1.02;;;;;;;;;;4990444;28;20058;-77
2023/01/14 05:23:20;;;;;;;5.43;0.77;;;;;;;;;;4972263;28;20153;-77
2023/01/14 05:25:47;;;;;;;6.18;1.42;;;;;;;;;;4957970;28;20046;-77
2023/01/14 05:28:15;;;;;;;10.00;1.75;;;;;;;;;;4956473;28;20066;-78
2023/01/14 05:30:42;;;;;;;3.60;1.15;;;;;;;;;;4939258;28;20059;-76
2023/01/14 05:33:10;;;;;;;10.77;2.05;;;;;;;;;;4943014;28;20510;-76
2023/01/14 05:35:36;;;;;;;7.10;1.05;;;;;;;;;;4974398;28;20168;-76
2023/01/14 05:38:05;;;;;;;4.25;1.25;;;;;;;;;;4957002;28;20050;-78
2023/01/14 05:40:32;;;;;;;4.43;1.58;;;;;;;;;;4931339;28;20142;-77
2023/01/14 05:45:48;;;;;;;9.50;1.52;;;;;;;;;;4995025;28;20133;-79
2023/01/14 05:48:16;;;;;;;4.40;1.45;;;;;;;;;;4947986;28;20054;-77
2023/01/14 05:50:43;;;;;;;5.78;1.25;;;;;;;;;;4963656;28;20134;-77
2023/01/14 05:53:10;;;;;;;6.38;1.00;;;;;;;;;;4947231;28;20062;-77
2023/01/14 05:55:37;;;;;;;4.63;1.67;;;;;;;;;;4980638;28;20054;-76
2023/01/14 05:58:04;;;;;;;6.32;1.05;;;;;;;;;;4953189;28;20093;-76
2023/01/14 06:06:23;;;;;;;3.58;1.20;;;;;;;;;;4967078;28;20054;-76
2023/01/14 06:09:04;;;;;;;3.55;1.00;;;;;;;;;;4964409;28;20081;-77
2023/01/14 06:11:34;;;;;;;7.32;1.20;;;;;;;;;;4982256;28;20062;-76
2023/01/14 06:14:01;;;;;;;3.53;1.00;;;;;;;;;;4984306;28;20062;-77
2023/01/14 06:16:32;;;;;;;5.10;1.92;;;;;;;;;;4972398;28;20053;-77
2023/01/14 06:18:59;;;;;;;9.25;3.88;;;;;;;;;;4961668;28;20054;-77
2023/01/14 06:21:29;;;;;;;6.05;1.83;;;;;;;;;;4977183;28;20060;-76
2023/01/14 06:23:57;;;;;;;4.38;1.90;;;;;;;;;;4960272;28;20068;-76
2023/01/14 06:26:28;;;;;;;4.07;2.08;;;;;;;;;;4959381;28;20050;-76
2023/01/14 06:28:59;;;;;;;8.65;1.80;;;;;;;;;;4975311;28;20066;-76
2023/01/14 06:31:26;;;;;;;9.43;2.85;;;;;;;;;;4959943;28;20064;-76
2023/01/14 06:33:53;;;;;;;6.72;2.10;;;;;;;;;;4968709;28;20149;-76
2023/01/14 06:36:19;;;;;;;6.38;1.85;;;;;;;;;;4943786;28;20499;-76
2023/01/14 06:38:46;;;;;;;6.30;1.80;;;;;;;;;;4977859;28;20137;-76
2023/01/14 06:41:13;;;;;;;9.15;3.78;;;;;;;;;;4968092;28;20499;-76
2023/01/14 06:43:41;;;;;;;7.57;1.50;;;;;;;;;;4961049;28;20050;-76
2023/01/14 06:46:13;;;;;;;3.72;1.10;;;;;;;;;;4956409;28;20121;-76
2023/01/14 06:48:40;;;;;;;3.38;1.13;;;;;;;;;;4944901;28;20581;-76
2023/01/14 06:51:09;;;;;;;11.32;5.07;;;;;;;;;;4959586;28;20414;-76
2023/01/14 06:53:35;;;;;;;6.68;2.72;;;;;;;;;;4961149;28;20145;-77
2023/01/14 06:56:10;;;;;;;3.75;1.20;;;;;;;;;;4963858;28;20457;-77
2023/01/14 06:58:38;;;;;;;8.25;2.42;;;;;;;;;;4955962;28;20054;-77
2023/01/14 07:01:05;;;;;;;6.55;1.98;;;;;;;;;;4957001;28;20439;-77
2023/01/14 07:03:32;;;;;;;6.20;1.90;;;;;;;;;;4942548;28;20141;-77
2023/01/14 07:05:59;;;;;;;7.95;1.30;;;;;;;;;;4943378;28;20177;-77
2023/01/14 07:08:27;;;;;;;5.30;1.95;;;;;;;;;;4943047;28;20058;-77
2023/01/14 07:10:54;;;;;;;5.18;1.00;;;;;;;;;;4927184;28;20051;-77
2023/01/14 07:13:21;;;;;;;5.97;1.42;;;;;;;;;;4941895;28;20050;-77
2023/01/14 07:15:48;;;;;;;5.35;1.88;;;;;;;;;;4933306;28;20043;-77
2023/01/14 07:18:15;;;;;;;7.82;1.90;;;;;;;;;;4940800;28;20141;-77
2023/01/14 07:20:43;;;;;;;6.03;1.20;;;;;;;;;;4941251;28;20116;-77
2023/01/14 07:23:10;;;;;;;8.50;1.40;;;;;;;;;;4925232;28;20059;-77
2023/01/14 07:25:37;;;;;;;7.45;1.67;;;;;;;;;;4956847;28;20442;-77
2023/01/14 07:28:04;;;;;;;7.63;1.40;;;;;;;;;;4940203;28;20062;-77
2023/01/14 07:30:31;;;;;;;4.82;1.50;;;;;;;;;;4940728;28;20142;-77
2023/01/14 07:32:59;;;;;;;8.30;1.58;;;;;;;;;;4943242;28;20138;-77
2023/01/14 07:35:27;;;;;;;3.25;1.13;;;;;;;;;;4991396;28;20064;-77
2023/01/14 07:37:58;;;;;;;7.30;1.83;;;;;;;;;;4943719;28;20093;-77
2023/01/14 07:40:25;;;;;;;12.20;1.92;;;;;;;;;;4960812;28;20121;-77
2023/01/14 07:42:59;;;;;;;6.93;1.23;;;;;;;;;;4947453;28;20496;-79
2023/01/14 07:45:27;;;;;;;7.10;1.60;;;;;;;;;;4959399;28;20149;-80
2023/01/14 07:47:55;;;;;;;9.85;2.33;;;;;;;;;;4977963;28;20054;-81
2023/01/14 07:50:22;;;;;;;6.88;2.17;;;;;;;;;;4961274;28;20404;-81
2023/01/14 07:52:53;;;;;;;7.85;1.25;;;;;;;;;;4957381;28;20088;-85
2023/01/14 07:55:20;;;;;;;4.15;1.20;;;;;;;;;;4966931;28;20062;-82
2023/01/14 07:57:47;;;;;;;6.13;1.20;;;;;;;;;;4961999;28;20464;-84
2023/01/14 08:00:15;;;;;;;8.40;1.85;;;;;;;;;;4961906;28;20441;-82
2023/01/14 08:02:41;;;;;;;7.70;1.80;;;;;;;;;;4944902;28;20413;-81
2023/01/14 08:05:16;;;;;;;8.40;1.85;;;;;;;;;;4978172;28;20137;-83
2023/01/14 08:07:42;;;;;;;5.50;1.33;;;;;;;;;;4960011;28;20046;-82
2023/01/14 08:10:10;;;;;;;7.70;1.52;;;;;;;;;;4960289;28;20078;-82
2023/01/14 08:12:37;;;;;;;7.55;2.00;;;;;;;;;;4974217;28;20069;-83
2023/01/14 08:15:09;;;;;;;4.75;1.55;;;;;;;;;;4948132;28;20046;-81
2023/01/14 08:17:36;;;;;;;7.63;1.53;;;;;;;;;;4948730;28;20046;-81
2023/01/14 08:20:03;;;;;;;7.50;1.25;;;;;;;;;;4967158;28;20053;-80
2023/01/14 08:22:30;;;;;;;9.43;1.67;;;;;;;;;;4935736;28;20058;-82
2023/01/14 08:24:57;;;;;;;8.25;1.40;;;;;;;;;;4934118;28;20049;-81
2023/01/14 08:27:28;;;;;;;7.75;1.42;;;;;;;;;;4938763;28;20078;-82
2023/01/14 08:30:33;;;;;;;3.70;1.67;;;;;;;;;;4970926;28;20061;-82
2023/01/14 11:17:33;;;;;;;1.13;0.80;;;;;;;;;;1551036;23;20037;-83
2023/01/14 11:20:23;;;;;;;2.25;0.70;;;;;;;;;;4985678;28;20034;-84
2023/01/14 11:22:56;;;;;;;2.88;0.82;;;;;;;;;;4977609;28;20066;-85
2023/01/14 11:25:23;;;;;;;1.98;1.20;;;;;;;;;;4977590;28;20042;-84
2023/01/14 11:27:51;;;;;;;3.75;1.00;;;;;;;;;;4976856;28;20060;-85
2023/01/14 11:30:20;;;;;;;3.35;1.10;;;;;;;;;;4974693;28;20050;-86
2023/01/14 11:32:49;;;;;;;3.25;1.00;;;;;;;;;;4959570;28;20046;-86
2023/01/14 11:35:25;;;;;;;3.45;1.20;;;;;;;;;;4963190;28;20481;-85
2023/01/14 11:37:56;;;;;;;1.83;1.08;;;;;;;;;;4962732;28;20038;-85
2023/01/14 11:41:28;;;;;;;4.18;1.20;;;;;;;;;;4979741;28;20049;-84
2023/01/14 11:43:13;;;;;;;4.07;1.10;;;;;;;;;;4994152;28;20066;-84
2023/01/14 11:45:40;;;;;;;2.97;1.17;;;;;;;;;;4967941;28;20033;-86
2023/01/14 11:48:25;;;;;;;3.85;1.23;;;;;;;;;;4989014;28;20085;-86
2023/01/14 11:51:02;;;;;;;2.08;1.00;;;;;;;;;;4965879;28;20046;-84
2023/01/14 11:53:46;;;;;;;3.88;1.40;;;;;;;;;;4968868;28;20395;-84
2023/01/14 11:56:33;;;;;;;3.35;1.10;;;;;;;;;;4971547;28;20056;-84
2023/01/14 11:59:22;;;;;;;4.53;1.20;;;;;;;;;;4969384;28;20049;-83
2023/01/14 12:01:52;;;;;;;3.10;1.20;;;;;;;;;;4991881;28;20050;-83
2023/01/14 12:04:21;;;;;;;3.03;1.00;;;;;;;;;;4955239;28;20077;-84
2023/01/14 12:06:54;;;;;;;2.35;0.70;;;;;;;;;;4970931;28;20096;-84
2023/01/14 12:09:32;;;;;;;2.60;0.77;;;;;;;;;;4971654;28;20055;-84
2023/01/14 12:12:02;;;;;;;2.45;0.88;;;;;;;;;;4958821;28;20554;-85
2023/01/14 12:17:29;;;;;;;3.28;0.98;;;;;;;;;;4992417;28;20110;-84
2023/01/14 12:20:17;;;;;;;4.47;1.20;;;;;;;;;;4973445;28;20050;-84
2023/01/14 12:22:57;;;;;;;2.58;0.93;;;;;;;;;;4981495;28;20421;-85
2023/01/14 12:25:24;;;;;;;2.65;1.17;;;;;;;;;;4973022;28;20077;-86
2023/01/14 12:28:09;;;;;;;3.67;1.05;;;;;;;;;;4972136;28;20414;-85
2023/01/14 12:30:54;;;;;;;1.30;0.80;;;;;;;;;;5002038;28;20378;-85
2023/01/14 12:33:41;;;;;;;3.88;0.98;;;;;;;;;;4970788;28;20526;-84
2023/01/14 12:36:39;;;;;;;4.45;1.02;;;;;;;;;;4972327;28;20060;-84
2023/01/14 12:45:44;;;;;;;6.03;1.77;;;;;;;;;;4975665;28;20057;-82
2023/01/14 12:48:18;;;;;;;3.42;0.90;;;;;;;;;;4973431;28;20161;-82
2023/01/14 12:51:04;;;;;;;2.72;0.93;;;;;;;;;;4962345;28;20050;-83
2023/01/14 12:53:34;;;;;;;2.30;0.90;;;;;;;;;;4957366;28;20137;-84
2023/01/14 12:56:04;;;;;;;4.03;0.90;;;;;;;;;;4974534;28;20443;-84
2023/01/14 12:58:33;;;;;;;1.23;0.75;;;;;;;;;;4958141;28;20137;-83
2023/01/14 13:01:05;;;;;;;3.40;0.85;;;;;;;;;;4970999;28;20052;-83
2023/01/14 13:03:35;;;;;;;1.98;1.00;;;;;;;;;;4951445;28;20085;-83
2023/01/14 13:06:16;;;;;;;3.80;1.00;;;;;;;;;;4970691;28;20085;-83
2023/01/14 13:08:50;;;;;;;4.30;1.17;;;;;;;;;;4972817;28;20546;-84
2023/01/14 13:11:26;;;;;;;3.58;1.30;;;;;;;;;;4963046;28;20069;-84
2023/01/14 13:14:02;;;;;;;3.13;1.00;;;;;;;;;;4971596;28;20046;-83
2023/01/14 13:16:37;;;;;;;4.40;1.10;;;;;;;;;;4968979;28;20046;-83
2023/01/14 13:19:26;;;;;;;2.67;0.88;;;;;;;;;;4963578;28;20388;-83
2023/01/14 13:21:56;;;;;;;2.42;0.77;;;;;;;;;;4972896;28;20518;-83
2023/01/14 13:24:29;;;;;;;2.08;0.93;;;;;;;;;;4959786;28;20089;-83
2023/01/14 13:26:58;;;;;;;2.95;1.20;;;;;;;;;;4957846;28;20073;-83
2023/01/14 13:29:28;;;;;;;1.20;0.90;;;;;;;;;;4954080;28;20073;-83
2023/01/14 13:31:56;;;;;;;2.58;1.27;;;;;;;;;;4972137;28;20041;-83
2023/01/14 13:34:26;;;;;;;2.15;1.35;;;;;;;;;;4972460;28;20058;-83
2023/01/14 13:36:59;;;;;;;3.17;1.08;;;;;;;;;;4988781;28;20046;-83
2023/01/14 13:39:27;;;;;;;2.30;1.20;;;;;;;;;;4994398;28;20054;-83
2023/01/14 13:41:57;;;;;;;2.78;1.02;;;;;;;;;;4979605;28;20053;-84
2023/01/14 13:44:28;;;;;;;3.25;1.30;;;;;;;;;;4975658;28;20056;-84
2023/01/14 13:47:01;;;;;;;2.17;1.40;;;;;;;;;;4982773;28;20056;-83
2023/01/14 13:49:31;;;;;;;2.47;1.70;;;;;;;;;;4977744;28;20053;-84
2023/01/14 13:52:21;;;;;;;3.70;1.35;;;;;;;;;;5011087;28;20058;-83
2023/01/14 13:54:59;;;;;;;2.08;1.20;;;;;;;;;;4982961;28;20070;-82
2023/01/14 13:57:30;;;;;;;5.45;1.38;;;;;;;;;;4958034;28;20053;-83
2023/01/14 14:00:05;;;;;;;4.82;1.20;;;;;;;;;;4995769;28;20050;-83
2023/01/14 14:02:44;;;;;;;10.00;3.05;;;;;;;;;;4973918;28;20054;-83
2023/01/14 14:05:30;;;;;;;4.93;1.80;;;;;;;;;;4987994;28;20104;-82
2023/01/14 14:08:02;;;;;;;3.85;1.92;;;;;;;;;;4972290;28;20046;-82
2023/01/14 14:11:30;;;;;;;8.27;1.95;;;;;;;;;;4971280;28;20058;-85
2023/01/14 14:14:16;;;;;;;3.65;1.75;;;;;;;;;;5003925;28;20067;-85
2023/01/14 14:16:49;;;;;;;3.63;1.23;;;;;;;;;;4995969;28;20138;-83
2023/01/14 14:19:44;;;;;;;3.63;1.45;;;;;;;;;;5008269;28;20048;-81
2023/01/14 14:22:35;;;;;;;3.13;1.38;;;;;;;;;;4997637;28;20054;-82
2023/01/14 14:25:07;;;;;;;2.15;0.98;;;;;;;;;;4979571;28;20533;-82
2023/01/14 14:27:37;;;;;;;;;;;;;;;;;;4983234;28;20066;-83
2023/01/14 14:30:11;;;;;;;3.13;1.75;;;;;;;;;;4982926;28;19929;-81
2023/01/14 14:33:06;;;;;;;3.53;1.70;;;;;;;;;;5026131;28;20051;-83
2023/01/14 14:36:19;;;;;;;3.80;1.52;;;;;;;;;;4999472;28;20577;-83
2023/01/14 14:42:43;;;;;;;8.02;1.80;;;;;;;;;;5023387;28;20049;-86
2023/01/14 14:45:40;;;;;;;4.25;1.52;;;;;;;;;;4995341;28;20064;-85
2023/01/14 14:48:20;;;;;;;4.85;3.10;;;;;;;;;;4993947;28;20049;-85
2023/01/14 14:50:48;;;;;;;16.30;13.35;;;;;;;;;;4986516;28;20047;-86
2023/01/14 14:53:34;;;;;;;13.77;9.55;;;;;;;;;;4992409;28;20054;-86
2023/01/14 14:56:04;;;;;;;8.93;4.32;;;;;;;;;;4960519;28;20058;-85
2023/01/14 14:58:31;;;;;;;6.13;3.55;;;;;;;;;;4968814;28;20065;-85
2023/01/14 15:01:00;;;;;;;4.78;2.20;;;;;;;;;;4970307;28;20047;-85
2023/01/14 15:03:31;;;;;;;4.47;2.13;;;;;;;;;;4958984;28;20066;-85
2023/01/14 15:05:58;;;;;;;5.38;2.95;;;;;;;;;;4956516;28;20061;-84
2023/01/14 15:08:32;;;;;;;2.90;1.40;;;;;;;;;;4973154;28;20065;-84
2023/01/14 15:11:04;;;;;;;2.42;1.10;;;;;;;;;;4958485;28;20061;-83
2023/01/14 15:13:33;;;;;;;2.80;0.93;;;;;;;;;;4987225;28;20073;-82
2023/01/14 15:16:03;;;;;;;1.98;1.00;;;;;;;;;;4954872;28;20132;-84
2023/01/14 15:18:38;;;;;;;3.05;1.10;;;;;;;;;;4963269;28;20116;-83
2023/01/14 15:21:06;;;;;;;1.98;1.38;;;;;;;;;;4974953;28;20061;-83
2023/01/14 15:23:35;;;;;;;2.67;0.95;;;;;;;;;;4955341;28;20106;-83
2023/01/14 15:26:02;;;;;;;1.85;1.15;;;;;;;;;;4954747;28;20084;-83
2023/01/14 15:28:29;;;;;;;1.27;0.82;;;;;;;;;;4968430;28;20510;-83
2023/01/14 15:31:01;;;;;;;1.30;0.77;;;;;;;;;;4957441;28;20068;-84
2023/01/14 15:33:36;;;;;;;2.85;0.95;;;;;;;;;;4973229;28;20065;-84
2023/01/14 15:36:05;;;;;;;1.48;0.75;;;;;;;;;;4982143;28;20085;-83
2023/01/14 15:38:36;;;;;;;1.80;0.60;;;;;;;;;;4988838;28;20258;-84
2023/01/14 15:41:10;;;;;;;2.90;0.80;;;;;;;;;;4970530;28;20058;-84
2023/01/14 15:43:40;;;;;;;4.10;1.17;;;;;;;;;;4978424;28;20137;-84
2023/01/14 15:46:18;;;;;;;1.42;0.95;;;;;;;;;;4955309;28;20109;-83
2023/01/14 15:49:00;;;;;;;2.22;0.60;;;;;;;;;;4970350;28;20043;-83
2023/01/14 15:51:42;;;;;;;1.45;0.73;;;;;;;;;;4958638;28;20062;-81
2023/01/14 15:54:40;;;;;;;2.10;0.80;;;;;;;;;;4961470;28;20089;-84
2023/01/14 15:57:28;;;;;;;1.67;0.75;;;;;;;;;;4955126;28;20074;-82
2023/01/14 16:00:18;;;;;;;1.50;0.60;;;;;;;;;;4979031;28;20061;-82
2023/01/14 16:02:46;;;;;;;0.63;0.63;;;;;;;;;;4978547;28;20077;-81
2023/01/14 16:05:34;;;;;;;2.08;0.90;;;;;;;;;;4978220;28;20064;-81
2023/01/14 16:08:15;;;;;;;2.30;1.30;;;;;;;;;;4957221;28;20053;-81
2023/01/14 16:10:43;;;;;;;7.43;1.48;;;;;;;;;;4973442;28;20045;-81
2023/01/14 16:13:19;;;;;;;3.28;1.77;;;;;;;;;;4962206;28;20050;-81
2023/01/14 16:15:48;;;;;;;3.70;1.27;;;;;;;;;;4952905;28;20129;-81
2023/01/14 16:18:17;;;;;;;1.92;0.90;;;;;;;;;;4978429;28;20054;-80
2023/01/14 16:20:44;;;;;;;1.10;0.98;;;;;;;;;;4954700;28;20129;-81
2023/01/14 16:23:12;;;;;;;0.98;0.65;;;;;;;;;;4962928;28;20080;-80
2023/01/14 16:25:40;;;;;;;3.25;0.60;;;;;;;;;;4965749;28;20049;-83
2023/01/14 16:28:09;;;;;;;1.45;0.98;;;;;;;;;;4982512;28;20069;-82
2023/01/14 16:30:36;;;;;;;2.28;0.88;;;;;;;;;;4963327;28;20050;-82
2023/01/14 16:33:06;;;;;;;2.08;1.20;;;;;;;;;;4987579;28;20061;-83
2023/01/14 16:35:33;;;;;;;1.20;0.90;;;;;;;;;;4974907;28;20062;-84
2023/01/14 16:38:00;;;;;;;2.38;1.13;;;;;;;;;;4971287;28;20058;-84
2023/01/14 16:40:33;;;;;;;2.00;0.80;;;;;;;;;;4966035;28;20050;-85
2023/01/14 16:43:00;;;;;;;1.65;0.63;;;;;;;;;;4979630;28;20049;-84
2023/01/14 16:45:28;;;;;;;1.88;0.80;;;;;;;;;;4972001;28;20061;-84
2023/01/14 16:47:56;;;;;;;3.38;1.33;;;;;;;;;;4968937;28;21022;-84
2023/01/14 16:50:23;;;;;;;2.50;1.50;;;;;;;;;;4973008;28;20108;-84
2023/01/14 16:52:51;;;;;;;3.58;1.25;;;;;;;;;;4952268;28;20054;-84
2023/01/14 16:55:26;;;;;;;4.60;2.40;;;;;;;;;;4989939;28;20050;-84
2023/01/14 16:57:53;;;;;;;7.30;2.78;;;;;;;;;;4972165;28;20408;-83
2023/01/14 17:00:22;;;;;;;2.55;1.70;;;;;;;;;;4972560;28;20050;-84
2023/01/14 17:02:50;;;;;;;4.00;1.35;;;;;;;;;;4970859;28;20475;-84
2023/01/14 17:05:17;;;;;;;2.20;1.40;;;;;;;;;;4954583;28;20054;-84
2023/01/14 17:07:45;;;;;;;5.47;2.53;;;;;;;;;;4956714;28;20046;-84
2023/01/14 17:10:16;;;;;;;17.08;10.98;;;;;;;;;;4954208;28;20411;-84
2023/01/14 17:12:44;;;;;;;28.77;16.33;;;;;;;;;;4968384;28;20050;-84
2023/01/14 17:15:13;;;;;;;3.33;2.45;;;;;;;;;;4967506;28;20069;-82
2023/01/14 17:17:41;;;;;;;3.90;1.33;;;;;;;;;;4970622;28;20084;-82
2023/01/14 17:20:18;;;;;;;2.13;1.30;;;;;;;;;;4957874;28;20062;-81
2023/01/14 17:22:45;;;;;;;2.40;1.63;;;;;;;;;;4969684;28;20057;-82
2023/01/14 17:25:14;;;;;;;2.40;1.20;;;;;;;;;;4956538;28;20050;-82
2023/01/14 17:27:42;;;;;;;3.00;1.50;;;;;;;;;;4985423;28;20050;-82
2023/01/14 17:30:13;;;;;;;5.68;1.73;;;;;;;;;;4959169;28;20050;-81
2023/01/14 17:32:42;;;;;;;2.50;1.20;;;;;;;;;;4965384;28;20049;-82
2023/01/14 17:35:10;;;;;;;2.10;1.00;;;;;;;;;;4974778;28;20117;-83
2023/01/14 17:37:39;;;;;;;1.33;0.80;;;;;;;;;;4960734;28;20105;-84
2023/01/14 17:40:21;;;;;;;2.17;1.13;;;;;;;;;;4961032;28;20610;-83
2023/01/14 17:42:49;;;;;;;2.92;1.00;;;;;;;;;;4972532;28;20046;-81
2023/01/14 17:45:17;;;;;;;2.95;1.30;;;;;;;;;;4962228;28;20046;-84
2023/01/14 17:47:44;;;;;;;2.67;1.13;;;;;;;;;;4985737;28;20053;-84
2023/01/14 17:50:12;;;;;;;47.47;16.42;;;;;;;;;;4964351;28;20057;-83
2023/01/14 17:52:42;;;;;;;41.05;13.73;;;;;;;;;;4958509;28;20050;-84
2023/01/14 17:55:09;;;;;;;5.53;2.20;;;;;;;;;;4981585;28;20082;-83
2023/01/14 17:57:37;;;;;;;3.50;1.70;;;;;;;;;;4978274;28;20084;-83
2023/01/14 18:00:05;;;;;;;6.45;2.10;;;;;;;;;;4957470;28;20077;-83
2023/01/14 18:02:32;;;;;;;3.85;1.70;;;;;;;;;;4961466;28;20133;-83
2023/01/14 18:05:02;;;;;;;1.95;1.10;;;;;;;;;;4990693;28;20050;-83
2023/01/14 18:07:29;;;;;;;2.03;0.90;;;;;;;;;;4981177;28;20295;-83
2023/01/14 18:09:56;;;;;;;1.75;1.00;;;;;;;;;;4974343;28;20046;-83
2023/01/14 18:12:23;;;;;;;2.28;0.90;;;;;;;;;;4977840;28;20072;-83
2023/01/14 18:14:50;;;;;;;1.48;1.08;;;;;;;;;;4977918;28;20133;-83
2023/01/14 18:17:16;;;;;;;3.47;1.42;;;;;;;;;;4976684;28;20056;-83
2023/01/14 18:19:43;;;;;;;1.63;1.10;;;;;;;;;;4974075;28;20443;-83
2023/01/14 18:22:10;;;;;;;1.77;1.38;;;;;;;;;;4964507;28;20417;-83
2023/01/14 18:24:37;;;;;;;1.50;1.00;;;;;;;;;;4979373;28;20059;-83
2023/01/14 18:27:04;;;;;;;2.67;0.98;;;;;;;;;;4981733;28;20073;-83